createdAt,value
2022-09-23T00:04:57.791Z,6.08
2022-09-23T00:10:00.794Z,6.12
2022-09-23T00:15:04.878Z,6.14
2022-09-23T00:20:09.709Z,6.16
2022-09-23T00:25:13.184Z,6.22
2022-09-23T00:30:16.084Z,6.28
2022-09-23T00:35:20.573Z,6.35
2022-09-23T00:40:23.756Z,6.41
2022-09-23T00:45:26.836Z,6.45
2022-09-23T00:50:43.253Z,6.48
2022-09-23T00:55:54.960Z,6.52
2022-09-23T01:01:00.949Z,6.57
2022-09-23T01:06:06.189Z,6.59
2022-09-23T01:11:34.178Z,6.62
2022-09-23T01:16:57.297Z,6.65
2022-09-23T01:22:22.065Z,6.66
2022-09-23T01:28:03.469Z,6.66
2022-09-23T01:33:22.653Z,6.64
2022-09-23T01:38:34.873Z,6.63
2022-09-23T01:43:48.932Z,6.59
2022-09-23T01:48:56.648Z,6.55
2022-09-23T01:54:06.510Z,6.48
2022-09-23T01:59:15.250Z,6.43
2022-09-23T02:04:26.035Z,6.37
2022-09-23T02:09:36.716Z,6.30
2022-09-23T02:15:03.626Z,6.23
2022-09-23T02:20:08.465Z,6.16
2022-09-23T02:25:12.904Z,6.10
2022-09-23T02:30:19.451Z,6.03
2022-09-23T02:35:33.289Z,5.99
2022-09-23T02:40:38.761Z,5.98
2022-09-23T02:45:42.004Z,5.96
2022-09-23T02:50:47.923Z,5.94
2022-09-23T02:55:51.361Z,5.92
2022-09-23T03:01:08.034Z,5.87
2022-09-23T03:06:39.838Z,5.81
2022-09-23T03:11:49.522Z,5.78
2022-09-23T03:17:16.182Z,5.75
2022-09-23T03:22:29.117Z,5.74
2022-09-23T03:27:35.084Z,5.73
2022-09-23T03:32:39.635Z,5.71
2022-09-23T03:38:08.742Z,5.68
2022-09-23T03:43:13.690Z,5.66
2022-09-23T03:48:17.002Z,5.65
2022-09-23T03:53:21.541Z,5.65
2022-09-23T03:58:24.647Z,5.67
2022-09-23T04:03:29.596Z,5.67
2022-09-23T04:08:32.802Z,5.64
2022-09-23T04:13:36.010Z,5.58
2022-09-23T04:18:39.071Z,5.52
2022-09-23T04:23:42.540Z,5.50
2022-09-23T04:28:45.744Z,5.53
2022-09-23T04:33:48.948Z,5.58
2022-09-23T04:38:52.568Z,5.65
2022-09-23T04:43:57.819Z,5.72
2022-09-23T04:49:01.027Z,5.80
2022-09-23T04:54:04.440Z,5.91
2022-09-23T04:59:08.266Z,6.06
2022-09-23T05:04:14.292Z,6.24
2022-09-23T05:09:18.374Z,6.55
2022-09-23T05:14:22.496Z,6.77
2022-09-23T05:19:25.910Z,6.75
2022-09-23T05:24:30.040Z,6.70
2022-09-23T05:29:33.967Z,6.73
2022-09-23T05:34:37.073Z,6.81
2022-09-23T05:39:40.274Z,6.95
2022-09-23T05:44:43.380Z,7.19
2022-09-23T05:49:59.036Z,7.44
2022-09-23T05:55:04.749Z,7.57
2022-09-23T06:00:10.049Z,7.87
2022-09-23T06:05:14.342Z,8.15
2022-09-23T06:10:17.646Z,8.56
2022-09-23T06:15:22.081Z,10.77
2022-09-23T06:20:25.914Z,13.42
2022-09-23T06:25:29.119Z,16.39
2022-09-23T06:30:32.325Z,17.75
2022-09-23T06:35:36.453Z,16.43
2022-09-23T06:40:39.709Z,15.26
2022-09-23T06:45:42.999Z,14.51
2022-09-23T06:50:46.491Z,14.19
2022-09-23T06:55:58.544Z,16.66
2022-09-23T07:01:05.147Z,19.28
2022-09-23T07:06:08.457Z,22.33
2022-09-23T07:11:13.594Z,25.05
2022-09-23T07:16:17.686Z,26.89
2022-09-23T07:21:21.440Z,26.89
2022-09-23T07:26:25.676Z,29.06
2022-09-23T07:31:38.771Z,31.02
2022-09-23T07:36:43.693Z,32.51
2022-09-23T07:41:46.867Z,34.01
2022-09-23T07:46:50.190Z,35.23
2022-09-23T07:51:53.672Z,35.64
2022-09-23T07:56:57.161Z,32.69
2022-09-23T08:02:00.400Z,29.56
2022-09-23T08:07:05.837Z,27.96
2022-09-23T08:12:15.766Z,25.99
2022-09-23T08:17:19.735Z,24.89
2022-09-23T08:22:23.140Z,23.15
2022-09-23T08:27:28.412Z,21.27
2022-09-23T08:32:32.015Z,19.67
2022-09-23T08:37:35.021Z,18.48
2022-09-23T08:42:41.801Z,17.56
2022-09-23T08:48:13.148Z,16.83
2022-09-23T08:53:30.618Z,16.36
2022-09-23T08:58:56.661Z,16.22
2022-09-23T09:04:36.734Z,16.16
2022-09-23T09:09:45.370Z,18.63
2022-09-23T09:14:57.588Z,20.76
2022-09-23T09:20:19.710Z,19.91
2022-09-23T09:25:40.771Z,18.94
2022-09-23T09:30:48.543Z,18.18
2022-09-23T09:36:36.438Z,17.76
2022-09-23T09:41:45.932Z,17.74
2022-09-23T09:47:18.592Z,18.77
2022-09-23T09:52:29.984Z,19.61
2022-09-23T09:57:38.953Z,20.43
2022-09-23T10:02:42.598Z,20.25
2022-09-23T10:07:45.802Z,19.93
2022-09-23T10:12:49.524Z,19.61
2022-09-23T10:17:52.934Z,19.39
2022-09-23T10:22:57.061Z,19.54
2022-09-23T10:28:38.570Z,19.60
2022-09-23T10:33:50.174Z,18.85
2022-09-23T10:39:18.268Z,18.12
2022-09-23T10:44:53.531Z,17.60
2022-09-23T10:50:07.758Z,17.25
2022-09-23T10:55:29.048Z,17.12
2022-09-23T11:00:52.285Z,17.14
2022-09-23T11:06:26.609Z,17.25
2022-09-23T11:12:16.563Z,17.51
2022-09-23T11:17:54.796Z,17.73
2022-09-23T11:23:20.966Z,17.85
2022-09-23T11:28:58.058Z,17.81
2022-09-23T11:34:31.674Z,17.58
2022-09-23T11:39:50.863Z,17.09
2022-09-23T11:45:00.507Z,16.45
2022-09-23T11:50:13.134Z,15.89
2022-09-23T11:55:23.319Z,15.40
2022-09-23T12:00:34.926Z,15.02
2022-09-23T12:05:45.440Z,14.73
2022-09-23T12:11:16.767Z,14.48
2022-09-23T12:16:43.292Z,14.27
2022-09-23T12:22:27.630Z,14.14
2022-09-23T12:27:38.550Z,14.02
2022-09-23T12:32:42.818Z,14.02
2022-09-23T12:37:46.123Z,14.05
2022-09-23T12:42:50.446Z,14.14
2022-09-23T12:47:53.773Z,14.30
2022-09-23T12:52:57.468Z,14.50
2022-09-23T12:58:01.312Z,14.80
2022-09-23T13:03:23.158Z,15.13
2022-09-23T13:08:26.776Z,15.45
2022-09-23T13:13:35.515Z,15.73
2022-09-23T13:18:55.110Z,15.83
2022-09-23T13:24:13.605Z,15.87
2022-09-23T13:29:33.574Z,15.96
2022-09-23T13:34:40.567Z,16.07
2022-09-23T13:39:44.496Z,16.19
2022-09-23T13:44:48.733Z,16.31
2022-09-23T13:49:54.029Z,16.40
2022-09-23T13:54:57.790Z,16.44
2022-09-23T14:00:21.334Z,16.43
2022-09-23T14:05:27.469Z,16.34
2022-09-23T14:10:32.424Z,16.24
2022-09-23T14:15:37.785Z,16.04
2022-09-23T14:20:51.199Z,15.89
2022-09-23T14:25:55.768Z,15.70
2022-09-23T14:30:59.180Z,15.54
2022-09-23T14:36:09.239Z,15.45
2022-09-23T14:41:35.637Z,15.36
2022-09-23T14:46:40.447Z,15.22
2022-09-23T14:51:47.522Z,15.09
2022-09-23T14:56:51.168Z,14.95
2022-09-23T15:01:54.687Z,14.80
2022-09-23T15:06:59.526Z,14.66
2022-09-23T15:12:07.245Z,14.51
2022-09-23T15:17:25.758Z,14.37
2022-09-23T15:22:29.742Z,14.26
2022-09-23T15:27:35.404Z,14.19
2022-09-23T15:32:39.943Z,14.11
2022-09-23T15:37:45.082Z,14.02
2022-09-23T15:42:51.787Z,13.93
2022-09-23T15:47:56.273Z,13.85
2022-09-23T15:53:00.148Z,13.77
2022-09-23T15:58:03.457Z,13.72
2022-09-23T16:03:06.974Z,13.67
2022-09-23T16:08:10.799Z,13.60
2022-09-23T16:13:15.693Z,13.49
2022-09-23T16:18:19.885Z,13.36
2022-09-23T16:23:39.088Z,13.22
2022-09-23T16:28:43.716Z,13.06
2022-09-23T16:33:49.164Z,12.91
2022-09-23T16:38:56.670Z,12.79
2022-09-23T16:44:02.778Z,12.68
2022-09-23T16:49:06.851Z,12.58
2022-09-23T16:54:12.968Z,12.49
2022-09-23T16:59:17.714Z,12.37
2022-09-23T17:04:23.559Z,12.24
2022-09-23T17:09:29.267Z,12.15
2022-09-23T17:14:34.864Z,12.10
2022-09-23T17:19:42.043Z,12.05
2022-09-23T17:24:46.125Z,12.01
2022-09-23T17:29:50.362Z,11.97
2022-09-23T17:34:55.007Z,11.92
2022-09-23T17:40:00.069Z,11.86
2022-09-23T17:50:32.757Z,11.70
2022-09-23T17:55:38.537Z,11.62
2022-09-23T18:00:48.073Z,11.55
2022-09-23T18:05:54.095Z,11.49
2022-09-23T18:10:59.647Z,11.43
2022-09-23T18:16:05.383Z,11.40
2022-09-23T18:21:10.954Z,11.35
2022-09-23T18:26:18.455Z,11.31
2022-09-23T18:31:24.407Z,11.28
2022-09-23T18:36:29.744Z,11.25
2022-09-23T18:41:36.222Z,11.21
2022-09-23T18:46:41.560Z,11.18
2022-09-23T18:51:57.461Z,11.16
2022-09-23T18:57:07.817Z,11.13
2022-09-23T19:02:13.344Z,11.10
2022-09-23T19:07:17.745Z,11.08
2022-09-23T19:12:23.229Z,11.04
2022-09-23T19:17:26.609Z,11.02
2022-09-23T19:22:32.984Z,11.00
2022-09-23T19:27:43.018Z,10.97
2022-09-23T19:32:46.844Z,10.96
2022-09-23T19:37:52.244Z,10.95
2022-09-23T19:42:57.111Z,10.93
2022-09-23T19:48:05.500Z,10.89
2022-09-23T19:53:09.452Z,10.87
2022-09-23T19:58:14.242Z,10.85
2022-09-23T20:03:18.504Z,10.83
2022-09-23T20:08:21.748Z,10.83
2022-09-23T20:13:24.700Z,10.83
2022-09-23T20:18:27.846Z,10.83
2022-09-23T20:23:31.381Z,10.80
2022-09-23T20:28:34.498Z,10.78
2022-09-23T20:33:38.790Z,10.74
2022-09-23T20:38:42.114Z,10.69
2022-09-23T20:43:45.320Z,10.62
2022-09-23T20:48:48.628Z,10.57
2022-09-23T20:53:53.128Z,10.54
2022-09-23T20:59:00.722Z,10.51
2022-09-23T21:04:06.109Z,10.48
2022-09-23T21:09:09.296Z,10.48
2022-09-23T21:14:13.040Z,10.48
2022-09-23T21:19:17.246Z,10.49
2022-09-23T21:29:44.605Z,10.49
2022-09-23T21:34:48.631Z,10.48
2022-09-23T21:40:11.057Z,10.48
2022-09-23T21:45:15.013Z,10.48
2022-09-23T21:50:18.629Z,10.47
2022-09-23T21:55:22.054Z,10.46
2022-09-23T22:00:25.897Z,10.43
2022-09-23T22:05:29.280Z,10.40
2022-09-23T22:10:32.386Z,10.34
2022-09-23T22:15:37.159Z,10.29
2022-09-23T22:20:41.669Z,10.23
2022-09-23T22:25:45.085Z,10.16
2022-09-23T22:31:07.297Z,10.10
2022-09-23T22:36:11.773Z,10.01
2022-09-23T22:41:15.464Z,9.92
2022-09-23T22:46:22.331Z,9.84
2022-09-23T22:51:25.804Z,9.78
2022-09-23T22:56:29.019Z,9.75
2022-09-23T23:01:35.892Z,9.73
2022-09-23T23:06:39.932Z,9.71
2022-09-23T23:11:44.217Z,9.70
2022-09-23T23:16:48.035Z,9.68
2022-09-23T23:21:51.342Z,9.65
2022-09-23T23:26:54.403Z,9.61
2022-09-23T23:31:57.875Z,9.55
2022-09-23T23:37:01.228Z,9.48
2022-09-23T23:42:05.102Z,9.42
2022-09-23T23:47:08.188Z,9.37
2022-09-23T23:52:12.567Z,9.30
2022-09-23T23:57:15.674Z,9.24
